createdAt,value
2022-10-05T00:00:29.182Z,11.90
2022-10-05T00:02:55.933Z,11.90
2022-10-05T00:05:40.905Z,11.90
2022-10-05T00:08:10.267Z,11.90
2022-10-05T00:10:38.628Z,12.40
2022-10-05T00:13:17.176Z,11.70
2022-10-05T00:15:44.384Z,11.80
2022-10-05T00:18:16.892Z,11.90
2022-10-05T00:20:45.144Z,11.90
2022-10-05T00:23:23.012Z,11.90
2022-10-05T00:25:49.726Z,11.80
2022-10-05T00:28:30.541Z,11.70
2022-10-05T00:30:58.374Z,11.60
2022-10-05T00:33:26.159Z,11.50
2022-10-05T00:35:53.468Z,11.50
2022-10-05T00:38:20.219Z,11.30
2022-10-05T00:41:08.840Z,11.50
2022-10-05T00:43:53.948Z,11.70
2022-10-05T00:46:27.242Z,11.70
2022-10-05T00:49:09.738Z,11.60
2022-10-05T00:51:37.952Z,11.60
2022-10-05T00:54:28.505Z,11.60
2022-10-05T00:57:18.261Z,11.60
2022-10-05T01:00:09.695Z,11.50
2022-10-05T01:03:07.476Z,11.50
2022-10-05T01:05:54.768Z,11.70
2022-10-05T01:08:49.323Z,11.70
2022-10-05T01:11:41.008Z,11.80
2022-10-05T01:14:26.107Z,11.70
2022-10-05T01:17:18.421Z,11.60
2022-10-05T01:20:20.959Z,11.70
2022-10-05T01:23:29.419Z,11.70
2022-10-05T01:26:14.153Z,11.70
2022-10-05T01:28:49.804Z,11.80
2022-10-05T01:31:30.681Z,11.90
2022-10-05T01:34:12.998Z,11.90
2022-10-05T01:37:03.326Z,11.90
2022-10-05T01:39:44.255Z,11.70
2022-10-05T01:42:21.844Z,11.60
2022-10-05T01:45:03.066Z,11.60
2022-10-05T01:47:49.999Z,11.60
2022-10-05T01:50:34.584Z,11.50
2022-10-05T01:53:20.010Z,11.50
2022-10-05T01:56:12.089Z,11.60
2022-10-05T01:58:57.738Z,11.50
2022-10-05T02:01:52.172Z,11.40
2022-10-05T02:04:59.782Z,11.30
2022-10-05T02:07:25.445Z,11.20
2022-10-05T02:09:57.810Z,11.20
2022-10-05T02:12:28.332Z,11.20
2022-10-05T02:15:02.962Z,11.20
2022-10-05T02:17:38.737Z,11.20
2022-10-05T02:20:10.303Z,11.10
2022-10-05T02:22:59.563Z,11.20
2022-10-05T02:25:47.371Z,10.70
2022-10-05T02:28:28.178Z,11.10
2022-10-05T02:31:13.240Z,11.20
2022-10-05T02:33:40.385Z,11.20
2022-10-05T02:36:19.943Z,11.30
2022-10-05T02:39:02.281Z,11.20
2022-10-05T02:41:37.870Z,11.20
2022-10-05T02:44:31.911Z,11.20
2022-10-05T02:47:22.166Z,11.20
2022-10-05T02:49:59.113Z,11.20
2022-10-05T02:52:38.101Z,11.20
2022-10-05T02:55:24.979Z,11.10
2022-10-05T02:58:06.213Z,11.10
2022-10-05T03:00:40.750Z,11.00
2022-10-05T03:03:26.675Z,11.00
2022-10-05T03:06:06.366Z,11.00
2022-10-05T03:08:41.197Z,11.10
2022-10-05T03:11:26.470Z,11.10
2022-10-05T03:14:18.502Z,11.10
2022-10-05T03:16:56.414Z,11.10
2022-10-05T03:19:37.587Z,11.20
2022-10-05T03:22:26.649Z,11.20
2022-10-05T03:25:28.712Z,11.30
2022-10-05T03:28:13.952Z,11.30
2022-10-05T03:31:04.403Z,11.30
2022-10-05T03:33:45.773Z,11.30
2022-10-05T03:36:30.080Z,11.30
2022-10-05T03:39:11.233Z,11.40
2022-10-05T03:41:47.374Z,11.40
2022-10-05T03:44:24.479Z,11.40
2022-10-05T03:47:05.653Z,11.40
2022-10-05T03:49:35.224Z,11.50
2022-10-05T03:52:11.303Z,11.50
2022-10-05T03:54:48.995Z,11.50
2022-10-05T03:57:21.752Z,11.50
2022-10-05T04:00:17.073Z,12.20
2022-10-05T04:02:50.998Z,11.50
2022-10-05T04:05:21.829Z,11.50
2022-10-05T04:08:19.741Z,11.50
2022-10-05T04:10:56.821Z,11.50
2022-10-05T04:13:29.165Z,11.50
2022-10-05T04:16:14.799Z,11.50
2022-10-05T04:18:50.208Z,11.50
2022-10-05T04:21:45.192Z,11.50
2022-10-05T04:24:20.995Z,11.50
2022-10-05T04:27:05.840Z,11.50
2022-10-05T04:29:41.339Z,11.40
2022-10-05T04:32:35.541Z,11.40
2022-10-05T04:35:22.144Z,11.40
2022-10-05T04:38:09.899Z,11.40
2022-10-05T04:40:56.451Z,11.40
2022-10-05T04:43:31.857Z,11.40
2022-10-05T04:46:31.046Z,11.40
2022-10-05T04:49:16.462Z,11.30
2022-10-05T04:52:13.982Z,11.30
2022-10-05T04:54:52.986Z,11.30
2022-10-05T04:57:40.436Z,11.30
2022-10-05T05:00:19.885Z,11.30
2022-10-05T05:03:16.227Z,11.30
2022-10-05T05:06:24.968Z,11.30
2022-10-05T05:09:13.849Z,11.30
2022-10-05T05:12:17.977Z,11.20
2022-10-05T05:14:47.205Z,11.30
2022-10-05T05:17:45.852Z,11.30
2022-10-05T05:20:42.980Z,11.30
2022-10-05T05:23:21.565Z,11.30
2022-10-05T05:26:01.134Z,11.30
2022-10-05T05:28:45.104Z,11.30
2022-10-05T05:31:36.892Z,11.30
2022-10-05T05:34:27.218Z,11.40
2022-10-05T05:37:07.978Z,11.40
2022-10-05T05:40:14.296Z,11.40
2022-10-05T05:43:02.263Z,11.50
2022-10-05T05:45:41.908Z,11.50
2022-10-05T05:48:46.720Z,11.40
2022-10-05T05:51:32.278Z,11.40
2022-10-05T05:54:38.617Z,11.50
2022-10-05T05:57:16.819Z,11.50
2022-10-05T05:59:53.641Z,11.60
2022-10-05T06:02:25.551Z,11.40
2022-10-05T06:05:02.310Z,11.70
2022-10-05T06:07:31.101Z,11.70
2022-10-05T06:10:06.089Z,11.70
2022-10-05T06:12:36.935Z,11.70
2022-10-05T06:15:16.288Z,11.70
2022-10-05T06:17:49.022Z,11.70
2022-10-05T06:20:39.171Z,11.70
2022-10-05T06:23:13.036Z,11.80
2022-10-05T06:26:10.534Z,11.70
2022-10-05T06:28:38.078Z,11.70
2022-10-05T06:31:31.301Z,11.80
2022-10-05T06:34:28.984Z,11.80
2022-10-05T06:37:18.700Z,11.90
2022-10-05T06:40:00.745Z,12.00
2022-10-05T06:42:46.534Z,12.10
2022-10-05T06:45:26.765Z,12.10
2022-10-05T06:48:19.861Z,12.10
2022-10-05T06:51:00.454Z,12.20
2022-10-05T06:53:47.396Z,12.40
2022-10-05T06:56:22.053Z,12.20
2022-10-05T06:59:03.810Z,12.20
2022-10-05T07:02:03.709Z,12.30
2022-10-05T07:05:01.353Z,12.40
2022-10-05T07:07:46.934Z,12.40
2022-10-05T07:10:25.300Z,12.40
2022-10-05T07:13:28.505Z,12.40
2022-10-05T07:16:19.943Z,12.40
2022-10-05T07:19:17.489Z,12.40
2022-10-05T07:22:15.013Z,12.50
2022-10-05T07:25:09.393Z,12.60
2022-10-05T07:27:58.516Z,12.70
2022-10-05T07:30:52.509Z,12.70
2022-10-05T07:33:34.197Z,12.80
2022-10-05T07:36:41.463Z,12.80
2022-10-05T07:39:18.352Z,12.90
2022-10-05T07:41:52.516Z,13.10
2022-10-05T07:44:38.380Z,13.20
2022-10-05T07:47:15.255Z,13.40
2022-10-05T07:50:01.665Z,13.60
2022-10-05T07:52:40.872Z,13.80
2022-10-05T07:55:20.423Z,13.80
2022-10-05T07:58:02.321Z,13.90
2022-10-05T08:00:48.786Z,13.90
2022-10-05T08:03:40.772Z,13.80
2022-10-05T08:06:27.601Z,13.90
2022-10-05T08:09:07.312Z,14.00
2022-10-05T08:11:55.435Z,14.10
2022-10-05T08:14:47.986Z,14.10
2022-10-05T08:17:31.879Z,14.10
2022-10-05T08:20:27.767Z,14.20
2022-10-05T08:23:36.451Z,14.30
2022-10-05T08:26:06.882Z,14.30
2022-10-05T08:28:47.062Z,14.40
2022-10-05T08:31:31.679Z,14.50
2022-10-05T08:34:32.214Z,14.60
2022-10-05T08:37:21.761Z,14.70
2022-10-05T08:40:22.510Z,14.70
2022-10-05T08:43:05.713Z,14.70
2022-10-05T08:45:50.907Z,14.60
2022-10-05T08:48:34.394Z,14.70
2022-10-05T08:51:28.859Z,14.80
2022-10-05T08:54:18.577Z,14.90
2022-10-05T08:57:40.587Z,15.10
2022-10-05T09:00:48.971Z,15.20
2022-10-05T09:03:52.284Z,15.20
2022-10-05T09:07:00.818Z,15.10
2022-10-05T09:09:56.257Z,15.30
2022-10-05T09:13:07.351Z,15.30
2022-10-05T09:15:39.971Z,15.40
2022-10-05T09:18:44.986Z,15.50
2022-10-05T09:21:42.073Z,15.40
2022-10-05T09:24:15.686Z,15.50
2022-10-05T09:26:46.594Z,15.60
2022-10-05T09:29:50.766Z,15.80
2022-10-05T09:32:55.245Z,15.70
2022-10-05T09:35:44.134Z,15.70
2022-10-05T09:38:44.666Z,15.70
2022-10-05T09:41:42.326Z,15.80
2022-10-05T09:44:46.485Z,15.80
2022-10-05T09:47:38.804Z,15.80
2022-10-05T09:50:27.362Z,16.00
2022-10-05T09:53:05.469Z,16.10
2022-10-05T09:55:52.141Z,15.90
2022-10-05T09:58:48.480Z,16.00
2022-10-05T10:01:47.356Z,15.90
2022-10-05T10:04:45.735Z,16.00
2022-10-05T10:07:27.359Z,16.10
2022-10-05T10:10:30.289Z,16.20
2022-10-05T10:13:16.356Z,16.20
2022-10-05T10:16:03.599Z,15.90
2022-10-05T10:19:07.339Z,15.80
2022-10-05T10:22:10.373Z,15.90
2022-10-05T10:24:58.959Z,15.80
2022-10-05T10:27:52.457Z,15.70
2022-10-05T10:30:58.534Z,15.80
2022-10-05T10:34:14.426Z,15.80
2022-10-05T10:37:05.976Z,15.80
2022-10-05T10:40:07.560Z,15.90
2022-10-05T10:42:56.228Z,16.10
2022-10-05T10:45:28.675Z,16.20
2022-10-05T10:48:21.255Z,16.10
2022-10-05T10:51:17.227Z,16.20
2022-10-05T10:54:25.655Z,16.20
2022-10-05T10:57:06.069Z,16.20
2022-10-05T10:59:59.242Z,16.30
2022-10-05T11:02:50.972Z,16.30
2022-10-05T11:05:48.801Z,16.30
2022-10-05T11:08:53.034Z,16.40
2022-10-05T11:11:38.515Z,16.40
2022-10-05T11:14:52.323Z,16.30
2022-10-05T11:17:31.546Z,16.40
2022-10-05T11:20:21.019Z,16.70
2022-10-05T11:22:57.430Z,16.90
2022-10-05T11:25:44.881Z,17.30
2022-10-05T11:28:33.489Z,17.50
2022-10-05T11:31:11.940Z,17.70
2022-10-05T11:33:42.754Z,17.90
2022-10-05T11:36:39.883Z,18.10
2022-10-05T11:39:37.012Z,18.20
2022-10-05T11:42:14.005Z,18.30
2022-10-05T11:45:06.191Z,18.50
2022-10-05T11:47:48.334Z,18.50
2022-10-05T11:50:32.511Z,18.30
2022-10-05T11:53:10.082Z,18.40
2022-10-05T11:56:25.372Z,18.50
2022-10-05T11:59:04.105Z,18.50
2022-10-05T12:01:53.868Z,18.40
2022-10-05T12:04:45.744Z,18.20
2022-10-05T12:07:21.439Z,18.30
2022-10-05T12:10:24.098Z,18.40
2022-10-05T12:13:13.410Z,18.40
2022-10-05T12:16:07.565Z,18.50
2022-10-05T12:18:39.120Z,18.50
2022-10-05T12:21:27.660Z,18.60
2022-10-05T12:24:21.243Z,18.70
2022-10-05T12:26:58.579Z,18.80
2022-10-05T12:29:34.829Z,19.00
2022-10-05T12:32:11.442Z,19.10
2022-10-05T12:34:49.925Z,19.20
2022-10-05T12:37:54.866Z,19.20
2022-10-05T12:40:45.092Z,19.20
2022-10-05T12:43:33.302Z,19.20
2022-10-05T12:46:24.617Z,19.10
2022-10-05T12:49:19.627Z,19.20
2022-10-05T12:51:52.104Z,19.20
2022-10-05T12:54:37.474Z,19.20
2022-10-05T12:57:25.247Z,19.10
2022-10-05T13:00:12.507Z,19.20
2022-10-05T13:02:53.256Z,19.30
2022-10-05T13:05:33.061Z,19.30
2022-10-05T13:08:24.459Z,19.30
2022-10-05T13:11:02.703Z,19.30
2022-10-05T13:14:07.325Z,19.40
2022-10-05T13:17:04.555Z,19.50
2022-10-05T13:19:44.529Z,19.50
2022-10-05T13:22:39.350Z,19.50
2022-10-05T13:25:31.134Z,19.50
2022-10-05T13:28:10.707Z,19.40
2022-10-05T13:30:40.753Z,19.50
2022-10-05T13:33:24.481Z,19.50
2022-10-05T13:36:03.581Z,19.50
2022-10-05T13:38:47.407Z,19.50
2022-10-05T13:41:30.890Z,19.60
2022-10-05T13:44:30.491Z,19.70
2022-10-05T13:47:05.086Z,19.70
2022-10-05T13:49:56.987Z,19.70
2022-10-05T13:52:33.850Z,19.60
2022-10-05T13:55:12.361Z,19.80
2022-10-05T13:57:53.265Z,19.80
2022-10-05T14:00:25.607Z,19.70
2022-10-05T14:02:56.535Z,19.70
2022-10-05T14:05:24.592Z,19.20
2022-10-05T14:08:04.403Z,19.90
2022-10-05T14:10:40.821Z,20.10
2022-10-05T14:13:25.385Z,20.30
2022-10-05T14:16:13.812Z,20.40
2022-10-05T14:19:04.347Z,20.20
2022-10-05T14:21:42.525Z,20.00
2022-10-05T14:24:45.203Z,19.80
2022-10-05T14:27:28.265Z,19.50
2022-10-05T14:30:29.120Z,19.50
2022-10-05T14:33:06.279Z,19.30
2022-10-05T14:35:54.510Z,18.90
2022-10-05T14:38:35.196Z,19.10
2022-10-05T14:41:11.882Z,19.10
2022-10-05T14:43:38.614Z,19.00
2022-10-05T14:46:20.670Z,19.00
2022-10-05T14:48:50.006Z,18.90
2022-10-05T14:51:31.862Z,18.80
2022-10-05T14:54:22.912Z,18.70
2022-10-05T14:56:58.972Z,18.80
2022-10-05T14:59:45.851Z,18.70
2022-10-05T15:02:45.095Z,18.60
2022-10-05T15:05:28.895Z,18.60
2022-10-05T15:08:05.120Z,18.60
2022-10-05T15:10:50.878Z,18.60
2022-10-05T15:13:24.119Z,18.50
2022-10-05T15:15:59.844Z,18.50
2022-10-05T15:18:42.172Z,18.50
2022-10-05T15:21:28.782Z,18.40
2022-10-05T15:24:24.317Z,18.50
2022-10-05T15:26:57.742Z,18.50
2022-10-05T15:29:31.965Z,18.50
2022-10-05T15:32:09.695Z,18.40
2022-10-05T15:34:57.982Z,18.40
2022-10-05T15:37:36.487Z,18.30
2022-10-05T15:40:07.320Z,18.30
2022-10-05T15:42:42.978Z,18.30
2022-10-05T15:45:32.264Z,18.20
2022-10-05T15:48:24.415Z,18.20
2022-10-05T15:50:56.838Z,18.10
2022-10-05T15:53:45.745Z,18.00
2022-10-05T15:56:37.868Z,18.00
2022-10-05T15:59:52.443Z,18.00
2022-10-05T16:02:25.866Z,17.90
2022-10-05T16:05:20.079Z,17.90
2022-10-05T16:08:10.406Z,18.00
2022-10-05T16:10:41.485Z,17.80
2022-10-05T16:13:29.409Z,17.80
2022-10-05T16:16:12.603Z,17.70
2022-10-05T16:19:22.463Z,17.80
2022-10-05T16:22:03.338Z,17.70
2022-10-05T16:24:56.859Z,17.60
2022-10-05T16:27:42.873Z,17.50
2022-10-05T16:30:18.418Z,17.60
2022-10-05T16:32:59.620Z,17.50
2022-10-05T16:35:44.603Z,17.40
2022-10-05T16:38:28.177Z,17.30
2022-10-05T16:41:27.959Z,17.30
2022-10-05T16:44:19.628Z,17.30
2022-10-05T16:47:09.707Z,17.20
2022-10-05T16:49:48.082Z,17.10
2022-10-05T16:52:19.205Z,17.10
2022-10-05T16:54:57.236Z,17.00
2022-10-05T16:57:32.042Z,17.00
2022-10-05T17:00:03.716Z,17.10
2022-10-05T17:02:33.241Z,16.90
2022-10-05T17:05:14.410Z,16.90
2022-10-05T17:08:08.062Z,16.80
2022-10-05T17:11:13.407Z,16.80
2022-10-05T17:14:06.140Z,16.70
2022-10-05T17:17:15.794Z,16.60
2022-10-05T17:20:03.245Z,16.50
2022-10-05T17:22:47.509Z,16.50
2022-10-05T17:25:27.573Z,16.60
2022-10-05T17:28:15.023Z,16.50
2022-10-05T17:31:14.820Z,16.30
2022-10-05T17:33:59.710Z,16.30
2022-10-05T17:36:44.467Z,16.30
2022-10-05T17:39:21.087Z,16.30
2022-10-05T17:41:48.298Z,16.30
2022-10-05T17:44:19.295Z,16.40
2022-10-05T17:46:48.953Z,16.40
2022-10-05T17:49:34.117Z,16.40
2022-10-05T17:52:22.543Z,16.30
2022-10-05T17:55:07.936Z,16.20
2022-10-05T17:57:36.737Z,16.20
2022-10-05T18:00:07.053Z,16.10
2022-10-05T18:02:38.418Z,16.00
2022-10-05T18:05:12.300Z,16.00
2022-10-05T18:07:40.779Z,15.90
2022-10-05T18:10:11.496Z,15.90
2022-10-05T18:12:50.357Z,16.00
2022-10-05T18:15:23.070Z,15.90
2022-10-05T18:17:58.622Z,15.80
2022-10-05T18:20:31.645Z,15.80
2022-10-05T18:23:06.117Z,15.70
2022-10-05T18:25:45.064Z,15.70
2022-10-05T18:28:39.648Z,15.70
2022-10-05T18:31:38.959Z,15.70
2022-10-05T18:34:51.147Z,15.70
2022-10-05T18:37:52.451Z,15.70
2022-10-05T18:40:36.254Z,15.60
2022-10-05T18:43:22.359Z,15.70
2022-10-05T18:45:54.792Z,15.50
2022-10-05T18:48:43.345Z,15.60
2022-10-05T18:51:26.225Z,15.50
2022-10-05T18:54:11.568Z,15.50
2022-10-05T18:56:43.257Z,15.50
2022-10-05T18:59:41.100Z,15.50
2022-10-05T19:02:24.739Z,15.50
2022-10-05T19:05:29.162Z,15.50
2022-10-05T19:08:02.098Z,15.50
2022-10-05T19:10:55.086Z,15.40
2022-10-05T19:13:28.783Z,15.40
2022-10-05T19:16:24.037Z,15.40
2022-10-05T19:19:12.066Z,15.30
2022-10-05T19:21:50.513Z,15.30
2022-10-05T19:24:41.713Z,15.30
2022-10-05T19:27:43.125Z,15.20
2022-10-05T19:30:23.510Z,15.20
2022-10-05T19:33:18.207Z,15.20
2022-10-05T19:36:06.567Z,15.10
2022-10-05T19:38:55.405Z,15.00
2022-10-05T19:41:41.217Z,15.00
2022-10-05T19:44:31.135Z,15.00
2022-10-05T19:47:05.582Z,15.00
2022-10-05T19:49:57.822Z,14.90
2022-10-05T19:52:37.636Z,15.00
2022-10-05T19:55:23.144Z,15.00
2022-10-05T19:57:55.585Z,15.10
2022-10-05T20:00:23.765Z,15.00
2022-10-05T20:02:52.137Z,15.00
2022-10-05T20:05:19.064Z,15.00
2022-10-05T20:07:45.858Z,14.90
2022-10-05T20:10:30.697Z,14.90
2022-10-05T20:12:59.934Z,15.00
2022-10-05T20:15:50.813Z,14.90
2022-10-05T20:19:15.020Z,14.90
2022-10-05T20:21:54.069Z,14.90
2022-10-05T20:24:23.550Z,15.00
2022-10-05T20:27:01.894Z,14.90
2022-10-05T20:29:29.854Z,15.00
2022-10-05T20:31:57.162Z,14.90
2022-10-05T20:34:24.087Z,15.00
2022-10-05T20:36:51.115Z,15.00
2022-10-05T20:39:18.725Z,14.90
2022-10-05T20:41:45.811Z,15.00
2022-10-05T20:44:13.150Z,14.70
2022-10-05T20:46:41.691Z,14.60
2022-10-05T20:49:10.615Z,15.10
2022-10-05T20:51:38.691Z,15.10
2022-10-05T20:54:05.658Z,15.10
2022-10-05T20:56:33.251Z,15.00
2022-10-05T20:58:59.859Z,15.10
2022-10-05T21:01:27.617Z,15.00
2022-10-05T21:03:54.622Z,15.10
2022-10-05T21:06:21.823Z,15.10
2022-10-05T21:08:51.042Z,15.00
2022-10-05T21:11:17.670Z,15.10
2022-10-05T21:13:47.573Z,15.10
2022-10-05T21:16:19.063Z,15.00
2022-10-05T21:18:47.813Z,15.00
2022-10-05T21:21:17.104Z,15.00
2022-10-05T21:23:45.021Z,15.10
2022-10-05T21:26:12.057Z,15.00
2022-10-05T21:28:39.733Z,15.00
2022-10-05T21:31:07.603Z,14.90
2022-10-05T21:33:34.686Z,15.10
2022-10-05T21:36:01.611Z,15.00
2022-10-05T21:38:28.849Z,15.00
2022-10-05T21:40:55.835Z,15.10
2022-10-05T21:43:22.406Z,15.10
2022-10-05T21:45:50.184Z,15.00
2022-10-05T21:48:18.540Z,15.00
2022-10-05T21:50:46.066Z,15.00
2022-10-05T21:53:16.282Z,15.00
2022-10-05T21:55:46.454Z,15.10
2022-10-05T21:58:14.812Z,15.10
2022-10-05T22:00:41.454Z,15.10
2022-10-05T22:03:08.916Z,15.10
2022-10-05T22:05:36.808Z,15.10
2022-10-05T22:08:04.765Z,15.00
2022-10-05T22:10:32.380Z,15.10
2022-10-05T22:13:03.371Z,15.00
2022-10-05T22:15:31.138Z,14.90
2022-10-05T22:17:59.579Z,15.20
2022-10-05T22:20:26.799Z,15.20
2022-10-05T22:22:53.934Z,15.20
2022-10-05T22:25:22.020Z,15.20
2022-10-05T22:27:49.681Z,15.20
2022-10-05T22:30:16.704Z,15.30
2022-10-05T22:32:44.379Z,15.20
2022-10-05T22:35:11.934Z,15.40
2022-10-05T22:37:38.839Z,15.30
2022-10-05T22:40:07.015Z,15.10
2022-10-05T22:42:33.984Z,15.20
2022-10-05T22:45:00.622Z,15.10
2022-10-05T22:47:27.255Z,15.10
2022-10-05T22:49:53.823Z,15.10
2022-10-05T22:52:20.506Z,15.20
2022-10-05T22:54:47.094Z,15.20
2022-10-05T22:57:13.657Z,15.10
2022-10-05T22:59:40.247Z,15.10
2022-10-05T23:02:06.859Z,15.10
2022-10-05T23:04:33.427Z,15.20
2022-10-05T23:06:59.966Z,15.30
2022-10-05T23:09:26.514Z,15.20
2022-10-05T23:11:54.356Z,14.50
2022-10-05T23:14:21.333Z,15.20
2022-10-05T23:16:47.979Z,15.20
2022-10-05T23:19:14.653Z,15.20
2022-10-05T23:21:41.562Z,15.20
2022-10-05T23:24:08.435Z,15.20
2022-10-05T23:26:35.032Z,15.20
2022-10-05T23:29:01.589Z,15.10
2022-10-05T23:31:30.601Z,15.10
2022-10-05T23:33:57.138Z,15.10
2022-10-05T23:36:32.150Z,15.00
2022-10-05T23:39:00.045Z,15.10
2022-10-05T23:41:26.625Z,15.00
2022-10-05T23:43:55.150Z,15.00
2022-10-05T23:46:21.845Z,15.10
2022-10-05T23:48:50.249Z,15.20
2022-10-05T23:51:16.941Z,15.30
2022-10-05T23:53:43.856Z,15.20
2022-10-05T23:56:10.541Z,15.10
2022-10-05T23:58:37.269Z,15.10
